createdAt,value
2023-04-29T00:04:55.263Z,11.38
2023-04-29T00:10:19.716Z,10.75
2023-04-29T00:15:44.777Z,10.38
2023-04-29T00:21:09.798Z,11.12
2023-04-29T00:26:35.273Z,10.75
2023-04-29T00:32:01.072Z,11.30
2023-04-29T00:37:25.769Z,11.35
2023-04-29T00:42:50.562Z,10.75
2023-04-29T00:53:50.401Z,10.63
2023-04-29T00:59:17.348Z,11.07
2023-04-29T01:04:42.590Z,10.13
2023-04-29T01:10:35.509Z,10.70
2023-04-29T01:16:22.801Z,10.50
2023-04-29T01:21:52.051Z,10.93
2023-04-29T01:27:25.224Z,11.27
2023-04-29T01:33:17.514Z,11.83
2023-04-29T01:39:12.229Z,11.40
2023-04-29T01:44:38.884Z,10.63
2023-04-29T01:50:02.926Z,10.87
2023-04-29T01:55:26.559Z,11.45
2023-04-29T02:00:50.007Z,11.35
2023-04-29T02:06:14.515Z,12.60
2023-04-29T02:11:38.805Z,11.57
2023-04-29T02:17:03.053Z,12.25
2023-04-29T02:22:26.117Z,11.37
2023-04-29T02:27:49.079Z,12.53
2023-04-29T02:33:12.752Z,12.37
2023-04-29T02:38:36.671Z,12.00
2023-04-29T02:43:59.422Z,12.43
2023-04-29T02:49:23.949Z,12.57
2023-04-29T02:54:46.820Z,12.15
2023-04-29T03:00:11.382Z,12.27
2023-04-29T03:05:36.022Z,12.53
2023-04-29T03:10:59.259Z,12.73
2023-04-29T03:16:22.429Z,12.33
2023-04-29T03:21:46.533Z,13.30
2023-04-29T03:27:11.582Z,13.10
2023-04-29T03:32:33.847Z,13.13
2023-04-29T03:37:57.362Z,12.70
2023-04-29T03:43:21.782Z,13.63
2023-04-29T03:48:45.082Z,12.93
2023-04-29T03:54:08.947Z,12.03
2023-04-29T03:59:33.488Z,13.85
2023-04-29T04:04:59.302Z,13.27
2023-04-29T04:10:21.880Z,12.93
2023-04-29T04:15:46.702Z,12.90
2023-04-29T04:21:13.588Z,13.40
2023-04-29T04:26:36.316Z,13.90
2023-04-29T04:31:59.541Z,12.90
2023-04-29T04:37:22.475Z,13.38
2023-04-29T04:42:46.274Z,12.88
2023-04-29T04:48:10.153Z,13.80
2023-04-29T04:53:32.495Z,13.20
2023-04-29T04:58:55.014Z,14.27
2023-04-29T05:04:18.843Z,13.97
2023-04-29T05:09:43.721Z,13.85
2023-04-29T05:15:07.529Z,14.03
2023-04-29T05:20:33.624Z,13.67
2023-04-29T05:25:58.468Z,14.50
2023-04-29T05:31:20.761Z,14.27
2023-04-29T05:36:43.058Z,13.60
2023-04-29T05:42:05.330Z,13.80
2023-04-29T05:47:27.933Z,13.97
2023-04-29T05:52:52.327Z,13.35
2023-04-29T05:58:16.008Z,15.13
2023-04-29T06:03:38.380Z,14.70
2023-04-29T06:09:00.932Z,12.83
2023-04-29T06:14:23.446Z,14.17
2023-04-29T06:19:45.804Z,14.40
2023-04-29T06:25:08.450Z,14.25
2023-04-29T06:30:31.234Z,14.28
2023-04-29T06:35:55.286Z,13.88
2023-04-29T06:41:17.678Z,14.15
2023-04-29T06:46:39.961Z,12.28
2023-04-29T06:52:03.051Z,12.82
2023-04-29T06:57:25.324Z,11.93
2023-04-29T07:02:48.164Z,12.37
2023-04-29T07:08:11.086Z,11.63
2023-04-29T07:13:33.830Z,10.72
2023-04-29T07:18:56.443Z,11.70
2023-04-29T07:24:18.940Z,11.95
2023-04-29T07:29:41.332Z,12.23
2023-04-29T07:35:04.124Z,12.28
2023-04-29T07:40:27.009Z,11.55
2023-04-29T07:45:49.300Z,11.20
2023-04-29T07:51:16.179Z,10.70
2023-04-29T07:56:38.500Z,12.90
2023-04-29T08:02:01.192Z,15.83
2023-04-29T08:07:23.516Z,11.57
2023-04-29T08:12:45.957Z,11.93
2023-04-29T08:18:08.329Z,11.53
2023-04-29T08:23:31.197Z,15.30
2023-04-29T08:28:54.435Z,11.45
2023-04-29T08:34:17.150Z,12.00
2023-04-29T08:39:40.989Z,12.28
2023-04-29T08:45:05.540Z,12.15
2023-04-29T08:50:28.206Z,13.58
2023-04-29T08:55:52.772Z,13.58
2023-04-29T09:01:15.696Z,17.60
2023-04-29T09:06:38.660Z,14.28
2023-04-29T09:12:00.914Z,12.33
2023-04-29T09:17:23.274Z,13.00
2023-04-29T09:22:51.518Z,11.63
2023-04-29T09:28:35.687Z,11.60
2023-04-29T09:34:14.858Z,12.27
2023-04-29T09:39:40.597Z,11.83
2023-04-29T09:45:03.741Z,14.43
2023-04-29T09:50:32.879Z,13.87
2023-04-29T09:56:15.148Z,15.40
2023-04-29T10:01:39.931Z,13.73
2023-04-29T10:07:05.340Z,12.63
2023-04-29T10:12:30.003Z,12.63
2023-04-29T10:18:02.988Z,12.57
2023-04-29T10:23:26.915Z,13.93
2023-04-29T10:28:52.049Z,13.35
2023-04-29T10:34:18.017Z,13.30
2023-04-29T10:40:09.460Z,13.58
2023-04-29T10:45:44.312Z,13.23
2023-04-29T10:51:10.094Z,15.13
2023-04-29T10:56:34.314Z,12.90
2023-04-29T11:02:02.620Z,12.90
2023-04-29T11:07:36.620Z,11.70
2023-04-29T11:13:00.858Z,12.13
2023-04-29T11:18:24.098Z,12.45
2023-04-29T11:24:05.156Z,12.00
2023-04-29T11:29:30.352Z,11.70
2023-04-29T11:34:53.667Z,12.13
2023-04-29T11:40:20.215Z,12.70
2023-04-29T11:45:42.576Z,12.43
2023-04-29T11:56:50.510Z,12.50
2023-04-29T12:02:14.117Z,11.80
2023-04-29T12:07:37.813Z,11.83
2023-04-29T12:13:01.466Z,12.20
2023-04-29T12:18:25.331Z,12.33
2023-04-29T12:23:48.637Z,11.73
2023-04-29T12:29:12.672Z,12.63
2023-04-29T12:34:39.316Z,11.80
2023-04-29T12:40:03.334Z,12.30
2023-04-29T12:45:42.206Z,12.15
2023-04-29T12:51:06.641Z,12.18
2023-04-29T12:56:44.519Z,13.35
2023-04-29T13:02:07.088Z,13.38
2023-04-29T13:07:30.145Z,12.33
2023-04-29T13:12:52.499Z,12.50
2023-04-29T13:18:15.490Z,11.07
2023-04-29T13:23:38.059Z,10.87
2023-04-29T13:29:00.620Z,9.63
2023-04-29T13:34:22.909Z,9.33
2023-04-29T13:39:47.311Z,8.75
2023-04-29T13:45:10.600Z,8.97
2023-04-29T14:02:07.897Z,8.83
2023-04-29T14:06:46.989Z,9.00
2023-04-29T14:12:09.717Z,9.23
2023-04-29T14:17:32.596Z,8.05
2023-04-29T14:22:55.479Z,8.83
2023-04-29T14:28:17.833Z,9.00
2023-04-29T14:33:40.941Z,16.27
